createdAt,value
2019-05-26T00:01:43.175Z,59.93
2019-05-26T00:05:47.423Z,59.95
2019-05-26T00:09:51.644Z,60.13
2019-05-26T00:13:55.878Z,60.13
2019-05-26T00:18:00.082Z,60.25
2019-05-26T00:22:04.402Z,60.51
2019-05-26T00:26:08.641Z,60.57
2019-05-26T00:30:13.614Z,60.58
2019-05-26T00:34:17.876Z,60.38
2019-05-26T00:38:22.182Z,60.38
2019-05-26T00:42:26.469Z,60.56
2019-05-26T00:46:30.745Z,60.56
2019-05-26T00:50:35.246Z,60.66
2019-05-26T00:54:39.579Z,60.75
2019-05-26T00:58:43.800Z,61.02
2019-05-26T01:02:48.058Z,61.23
2019-05-26T01:06:52.363Z,61.82
2019-05-26T01:10:56.656Z,62.10
2019-05-26T01:15:00.937Z,62.33
2019-05-26T01:19:05.344Z,62.44
2019-05-26T01:23:09.545Z,62.40
2019-05-26T01:27:13.930Z,62.15
2019-05-26T01:31:18.168Z,62.20
2019-05-26T01:35:22.384Z,62.28
2019-05-26T01:39:26.763Z,62.43
2019-05-26T01:43:31.302Z,62.55
2019-05-26T01:47:35.551Z,62.61
2019-05-26T01:51:39.771Z,62.63
2019-05-26T01:55:43.963Z,62.68
2019-05-26T01:59:48.199Z,62.60
2019-05-26T02:03:52.528Z,62.68
2019-05-26T02:07:56.789Z,62.79
2019-05-26T02:12:01.184Z,62.92
2019-05-26T02:16:05.967Z,63.10
2019-05-26T02:20:11.259Z,63.44
2019-05-26T02:24:15.633Z,63.37
2019-05-26T02:28:20.014Z,63.39
2019-05-26T02:32:24.242Z,63.33
2019-05-26T02:36:28.484Z,63.34
2019-05-26T02:40:32.731Z,63.26
2019-05-26T02:44:36.984Z,63.14
2019-05-26T02:48:41.232Z,62.98
2019-05-26T02:52:45.400Z,62.90
2019-05-26T02:56:49.728Z,62.81
2019-05-26T03:00:53.974Z,62.72
2019-05-26T03:04:58.211Z,62.47
2019-05-26T03:09:21.763Z,62.34
2019-05-26T03:13:14.569Z,62.09
2019-05-26T03:17:19.804Z,61.96
2019-05-26T03:21:27.496Z,61.91
2019-05-26T03:25:33.782Z,61.98
2019-05-26T03:29:37.967Z,61.93
2019-05-26T03:33:42.203Z,61.94
2019-05-26T03:37:46.408Z,62.09
2019-05-26T03:41:50.730Z,62.16
2019-05-26T03:46:17.954Z,62.13
2019-05-26T03:50:22.132Z,62.24
2019-05-26T03:54:26.515Z,62.23
2019-05-26T03:58:30.738Z,62.17
2019-05-26T04:02:34.993Z,62.21
2019-05-26T04:06:39.263Z,62.26
2019-05-26T04:10:43.487Z,62.33
2019-05-26T04:14:47.715Z,62.51
2019-05-26T04:18:51.963Z,62.69
2019-05-26T04:22:56.213Z,62.61
2019-05-26T04:27:00.455Z,62.71
2019-05-26T04:31:04.871Z,62.77
2019-05-26T04:35:09.271Z,62.75
2019-05-26T04:39:33.904Z,62.91
2019-05-26T04:43:38.159Z,62.30
2019-05-26T04:47:42.401Z,62.07
2019-05-26T04:51:46.661Z,62.09
2019-05-26T04:55:50.853Z,62.03
2019-05-26T04:59:55.092Z,61.84
2019-05-26T05:03:59.311Z,61.96
2019-05-26T05:08:03.621Z,61.77
2019-05-26T05:12:08.017Z,61.65
2019-05-26T05:16:12.293Z,61.54
2019-05-26T05:20:16.555Z,61.65
2019-05-26T05:24:20.824Z,61.65
2019-05-26T05:28:25.050Z,61.80
2019-05-26T05:32:32.750Z,61.83
2019-05-26T05:36:35.320Z,61.75
2019-05-26T05:40:39.892Z,61.72
2019-05-26T05:44:44.095Z,61.52
2019-05-26T05:48:48.337Z,61.41
2019-05-26T05:52:52.598Z,61.44
2019-05-26T05:56:56.819Z,60.80
2019-05-26T06:01:02.629Z,60.65
2019-05-26T06:05:07.441Z,60.04
2019-05-26T06:09:11.814Z,59.16
2019-05-26T06:13:16.093Z,59.23
2019-05-26T06:17:20.460Z,59.23
2019-05-26T06:21:25.687Z,59.16
2019-05-26T06:25:29.911Z,58.67
2019-05-26T06:29:34.270Z,58.78
2019-05-26T06:33:38.471Z,58.73
2019-05-26T06:37:42.690Z,58.30
2019-05-26T06:41:46.884Z,57.97
2019-05-26T06:45:51.162Z,57.67
2019-05-26T06:49:55.381Z,57.57
2019-05-26T06:53:59.639Z,57.46
2019-05-26T06:58:03.865Z,57.28
2019-05-26T07:02:08.139Z,56.76
2019-05-26T07:06:12.475Z,57.04
2019-05-26T07:10:17.938Z,56.62
2019-05-26T07:14:22.146Z,56.21
2019-05-26T07:18:26.422Z,56.22
2019-05-26T07:22:31.006Z,55.92
2019-05-26T07:26:35.375Z,55.96
2019-05-26T07:30:39.649Z,55.57
2019-05-26T07:34:43.902Z,55.84
2019-05-26T07:38:48.165Z,55.23
2019-05-26T07:42:52.577Z,54.93
2019-05-26T07:46:56.822Z,54.55
2019-05-26T07:51:01.047Z,54.24
2019-05-26T07:55:05.835Z,53.93
2019-05-26T07:59:10.028Z,53.44
2019-05-26T08:03:14.290Z,53.32
2019-05-26T08:07:18.691Z,53.10
2019-05-26T08:11:23.039Z,52.57
2019-05-26T08:15:27.670Z,51.91
2019-05-26T08:19:31.969Z,51.36
2019-05-26T08:23:36.208Z,51.97
2019-05-26T08:27:40.427Z,52.36
2019-05-26T08:31:44.812Z,52.14
2019-05-26T08:35:49.101Z,51.79
2019-05-26T08:39:53.301Z,49.91
2019-05-26T08:43:57.611Z,51.29
2019-05-26T08:48:01.923Z,50.87
2019-05-26T08:52:06.117Z,50.76
2019-05-26T08:56:10.356Z,50.31
2019-05-26T09:00:16.714Z,50.00
2019-05-26T09:04:20.991Z,49.53
2019-05-26T09:08:25.431Z,50.00
2019-05-26T09:12:29.637Z,50.50
2019-05-26T09:16:34.486Z,49.81
2019-05-26T09:20:39.248Z,49.95
2019-05-26T09:24:44.123Z,48.82
2019-05-26T09:28:49.990Z,50.24
2019-05-26T09:32:55.307Z,50.61
2019-05-26T09:37:00.077Z,50.29
2019-05-26T09:41:04.407Z,50.34
2019-05-26T09:45:09.202Z,50.14
2019-05-26T09:49:13.449Z,50.26
2019-05-26T09:53:17.998Z,50.09
2019-05-26T09:57:22.214Z,49.83
2019-05-26T10:01:26.496Z,49.41
2019-05-26T10:05:30.757Z,48.99
2019-05-26T10:09:35.357Z,48.94
2019-05-26T10:13:39.632Z,48.95
2019-05-26T10:17:44.290Z,48.08
2019-05-26T10:21:48.566Z,48.71
2019-05-26T10:25:52.794Z,48.62
2019-05-26T10:29:57.129Z,48.50
2019-05-26T10:34:01.370Z,48.00
2019-05-26T10:38:05.811Z,48.95
2019-05-26T10:42:10.188Z,47.83
2019-05-26T10:46:14.492Z,48.77
2019-05-26T10:50:18.946Z,48.43
2019-05-26T10:54:23.407Z,47.88
2019-05-26T10:58:28.227Z,47.71
2019-05-26T11:02:32.422Z,47.47
2019-05-26T11:06:37.107Z,45.42
2019-05-26T11:10:41.542Z,46.39
2019-05-26T11:14:46.020Z,46.30
2019-05-26T11:18:50.595Z,45.96
2019-05-26T11:22:54.882Z,45.90
2019-05-26T11:27:07.991Z,46.08
2019-05-26T11:31:05.488Z,46.17
2019-05-26T11:35:10.212Z,46.45
2019-05-26T11:39:14.487Z,46.95
2019-05-26T11:43:18.765Z,46.81
2019-05-26T11:47:23.015Z,46.82
2019-05-26T11:51:27.290Z,46.04
2019-05-26T11:55:31.588Z,45.97
2019-05-26T11:59:35.802Z,45.14
2019-05-26T12:03:40.041Z,45.48
2019-05-26T12:07:44.300Z,45.42
2019-05-26T12:11:48.530Z,45.13
2019-05-26T12:15:52.823Z,44.53
2019-05-26T12:19:57.086Z,44.64
2019-05-26T12:24:01.312Z,44.68
2019-05-26T12:28:05.646Z,44.65
2019-05-26T12:32:10.069Z,45.17
2019-05-26T12:36:14.753Z,45.08
2019-05-26T12:40:19.106Z,45.26
2019-05-26T12:44:23.440Z,45.95
2019-05-26T12:48:27.738Z,46.08
2019-05-26T12:52:32.071Z,45.76
2019-05-26T12:56:36.902Z,46.20
2019-05-26T13:00:48.646Z,46.54
2019-05-26T13:04:47.205Z,45.73
2019-05-26T13:08:51.488Z,45.04
2019-05-26T13:12:55.750Z,46.12
2019-05-26T13:17:01.617Z,46.50
2019-05-26T13:21:06.066Z,46.26
2019-05-26T13:25:11.104Z,45.90
2019-05-26T13:29:15.487Z,45.63
2019-05-26T13:33:19.722Z,45.44
2019-05-26T13:37:24.029Z,45.40
2019-05-26T13:41:28.243Z,45.53
2019-05-26T13:45:33.986Z,45.28
2019-05-26T13:49:39.604Z,45.77
2019-05-26T13:53:43.862Z,45.31
2019-05-26T13:57:49.531Z,45.66
2019-05-26T14:01:54.286Z,45.37
2019-05-26T14:05:58.549Z,45.73
2019-05-26T14:10:02.771Z,46.25
2019-05-26T14:14:07.501Z,45.77
2019-05-26T14:18:11.769Z,45.52
2019-05-26T14:22:16.134Z,46.08
2019-05-26T14:26:21.839Z,46.94
2019-05-26T14:30:26.158Z,46.45
2019-05-26T14:34:30.543Z,46.79
2019-05-26T14:38:43.175Z,47.55
2019-05-26T14:42:41.034Z,47.93
2019-05-26T14:46:45.260Z,48.03
2019-05-26T14:50:49.528Z,48.02
2019-05-26T14:54:53.822Z,47.04
2019-05-26T14:58:58.128Z,46.58
2019-05-26T15:03:02.392Z,46.60
2019-05-26T15:07:06.796Z,47.11
2019-05-26T15:11:11.383Z,47.41
2019-05-26T15:15:17.194Z,49.07
2019-05-26T15:19:21.496Z,51.27
2019-05-26T15:23:25.755Z,52.79
2019-05-26T15:27:30.033Z,54.24
2019-05-26T15:31:34.279Z,55.72
2019-05-26T15:35:38.639Z,56.74
2019-05-26T15:39:42.955Z,57.78
2019-05-26T15:43:47.242Z,58.09
2019-05-26T15:47:51.647Z,58.23
2019-05-26T15:51:55.879Z,59.35
2019-05-26T15:56:00.548Z,60.13
2019-05-26T16:00:05.894Z,59.78
2019-05-26T16:04:10.282Z,59.81
2019-05-26T16:08:15.014Z,60.77
2019-05-26T16:12:19.434Z,60.78
2019-05-26T16:16:38.183Z,60.87
2019-05-26T16:20:31.144Z,60.43
2019-05-26T16:24:35.645Z,60.36
2019-05-26T16:28:39.922Z,61.00
2019-05-26T16:32:44.384Z,61.75
2019-05-26T16:36:48.659Z,62.33
2019-05-26T16:40:52.907Z,62.50
2019-05-26T16:44:57.237Z,62.93
2019-05-26T16:49:01.489Z,63.23
2019-05-26T16:53:05.916Z,63.57
2019-05-26T16:57:10.176Z,63.75
2019-05-26T17:01:15.667Z,63.80
2019-05-26T17:05:19.952Z,63.77
2019-05-26T17:09:24.154Z,63.75
2019-05-26T17:13:28.408Z,63.59
2019-05-26T17:17:32.745Z,62.93
2019-05-26T17:21:37.234Z,62.75
2019-05-26T17:25:41.523Z,62.01
2019-05-26T17:29:45.793Z,62.25
2019-05-26T17:33:50.105Z,62.31
2019-05-26T17:37:55.407Z,62.25
2019-05-26T17:41:59.798Z,61.81
2019-05-26T17:46:04.436Z,61.55
2019-05-26T17:50:09.326Z,61.67
2019-05-26T17:54:13.636Z,61.84
2019-05-26T17:58:17.922Z,62.06
2019-05-26T18:02:22.357Z,62.22
2019-05-26T18:06:26.785Z,62.38
2019-05-26T18:10:31.439Z,62.54
2019-05-26T18:14:36.305Z,62.54
2019-05-26T18:18:40.810Z,62.19
2019-05-26T18:22:45.082Z,62.49
2019-05-26T18:26:49.362Z,62.93
2019-05-26T18:30:53.757Z,62.61
2019-05-26T18:34:58.480Z,62.28
2019-05-26T18:39:02.908Z,62.05
2019-05-26T18:43:07.294Z,61.73
2019-05-26T18:47:11.718Z,62.12
2019-05-26T18:51:16.177Z,61.94
2019-05-26T18:55:20.752Z,61.97
2019-05-26T18:59:24.964Z,62.31
2019-05-26T19:03:29.204Z,62.58
2019-05-26T19:07:33.556Z,62.88
2019-05-26T19:11:37.818Z,62.99
2019-05-26T19:15:42.103Z,63.19
2019-05-26T19:19:46.622Z,63.40
2019-05-26T19:23:51.238Z,63.50
2019-05-26T19:27:55.532Z,63.68
2019-05-26T19:31:59.784Z,63.70
2019-05-26T19:36:09.050Z,63.83
2019-05-26T19:40:11.156Z,63.94
2019-05-26T19:44:15.555Z,63.95
2019-05-26T19:48:35.025Z,64.09
2019-05-26T19:52:28.317Z,63.88
2019-05-26T19:56:41.142Z,64.11
2019-05-26T20:00:47.274Z,64.25
2019-05-26T20:04:51.898Z,64.41
2019-05-26T20:09:00.097Z,64.44
2019-05-26T20:13:40.378Z,64.68
2019-05-26T20:17:48.995Z,64.80
2019-05-26T20:22:09.268Z,64.89
2019-05-26T20:26:14.462Z,65.07
2019-05-26T20:30:33.523Z,65.23
2019-05-26T20:34:49.353Z,65.37
2019-05-26T20:38:57.632Z,65.42
2019-05-26T20:43:02.839Z,65.52
2019-05-26T20:47:07.136Z,65.73
2019-05-26T20:51:11.344Z,65.87
2019-05-26T20:55:15.943Z,66.04
2019-05-26T20:59:20.493Z,66.19
2019-05-26T21:03:24.803Z,66.26
2019-05-26T21:07:29.898Z,66.15
2019-05-26T21:11:34.276Z,66.26
2019-05-26T21:15:38.601Z,66.46
2019-05-26T21:19:43.002Z,66.61
2019-05-26T21:23:47.303Z,66.72
2019-05-26T21:27:54.824Z,66.88
2019-05-26T21:31:59.061Z,67.07
2019-05-26T21:36:03.378Z,66.91
2019-05-26T21:40:08.665Z,66.80
2019-05-26T21:44:13.064Z,66.64
2019-05-26T21:48:17.317Z,66.18
2019-05-26T21:52:21.613Z,66.16
2019-05-26T21:56:25.937Z,66.20
2019-05-26T22:00:32.702Z,66.08
2019-05-26T22:04:37.710Z,65.65
2019-05-26T22:08:41.950Z,65.51
2019-05-26T22:12:46.189Z,65.39
2019-05-26T22:16:50.444Z,65.71
2019-05-26T22:25:09.036Z,65.94
2019-05-26T22:29:13.371Z,65.94
2019-05-26T22:33:17.851Z,66.01
2019-05-26T22:37:22.215Z,66.24
2019-05-26T22:41:27.578Z,66.31
2019-05-26T22:45:32.117Z,66.44
2019-05-26T22:49:36.944Z,66.56
2019-05-26T22:53:41.313Z,66.85
2019-05-26T22:57:45.758Z,67.09
2019-05-26T23:01:50.128Z,67.38
2019-05-26T23:05:55.021Z,67.60
2019-05-26T23:10:02.594Z,67.94
2019-05-26T23:14:05.758Z,68.16
2019-05-26T23:18:10.166Z,68.29
2019-05-26T23:22:14.607Z,68.43
2019-05-26T23:26:18.962Z,68.56
2019-05-26T23:30:23.645Z,68.68
2019-05-26T23:34:27.995Z,68.79
2019-05-26T23:38:33.413Z,68.85
2019-05-26T23:42:37.772Z,68.85
2019-05-26T23:46:42.140Z,69.02
2019-05-26T23:50:46.618Z,69.19
2019-05-26T23:54:50.940Z,69.23
2019-05-26T23:58:55.469Z,69.28
